createdAt,value
2022-10-08T00:01:33.489Z,12.42
2022-10-08T00:04:03.849Z,12.40
2022-10-08T00:06:33.975Z,12.38
2022-10-08T00:09:06.714Z,12.33
2022-10-08T00:11:40.440Z,12.30
2022-10-08T00:14:10.545Z,12.28
2022-10-08T00:16:41.258Z,12.27
2022-10-08T00:19:13.943Z,12.22
2022-10-08T00:21:45.142Z,12.21
2022-10-08T00:24:18.216Z,12.18
2022-10-08T00:26:46.970Z,12.21
2022-10-08T00:29:17.407Z,12.22
2022-10-08T00:31:47.994Z,12.23
2022-10-08T00:34:19.925Z,12.21
2022-10-08T00:36:52.741Z,12.19
2022-10-08T00:39:24.826Z,12.03
2022-10-08T00:41:55.582Z,12.15
2022-10-08T00:44:44.796Z,12.12
2022-10-08T00:47:16.722Z,12.13
2022-10-08T00:49:45.734Z,12.12
2022-10-08T00:52:14.564Z,12.08
2022-10-08T00:54:44.752Z,12.09
2022-10-08T00:57:13.660Z,12.07
2022-10-08T00:59:42.344Z,12.08
2022-10-08T01:02:11.724Z,12.08
2022-10-08T01:04:42.235Z,12.05
2022-10-08T01:07:16.925Z,12.03
2022-10-08T01:09:54.514Z,12.01
2022-10-08T01:12:34.578Z,12.03
2022-10-08T01:15:12.711Z,11.98
2022-10-08T01:17:55.734Z,12.02
2022-10-08T01:20:39.785Z,12.02
2022-10-08T01:23:34.141Z,11.99
2022-10-08T01:26:19.394Z,11.97
2022-10-08T01:28:56.805Z,11.96
2022-10-08T01:31:29.557Z,11.97
2022-10-08T01:34:03.834Z,11.94
2022-10-08T01:36:39.085Z,11.91
2022-10-08T01:39:12.236Z,11.89
2022-10-08T01:41:44.447Z,11.86
2022-10-08T01:44:18.287Z,11.82
2022-10-08T01:46:50.356Z,11.82
2022-10-08T01:49:24.388Z,11.78
2022-10-08T01:51:56.468Z,11.79
2022-10-08T01:54:30.118Z,11.75
2022-10-08T01:57:02.058Z,11.74
2022-10-08T01:59:35.647Z,11.71
2022-10-08T02:02:11.905Z,11.70
2022-10-08T02:04:40.614Z,11.68
2022-10-08T02:07:11.348Z,11.67
2022-10-08T02:09:43.549Z,11.69
2022-10-08T02:12:13.208Z,11.73
2022-10-08T02:14:45.240Z,11.78
2022-10-08T02:17:23.528Z,11.82
2022-10-08T02:19:57.876Z,11.88
2022-10-08T02:22:34.169Z,11.78
2022-10-08T02:25:12.021Z,11.91
2022-10-08T02:27:52.698Z,11.94
2022-10-08T02:30:24.499Z,11.96
2022-10-08T02:33:00.536Z,11.97
2022-10-08T02:35:39.147Z,11.97
2022-10-08T02:38:13.000Z,11.95
2022-10-08T02:40:46.045Z,11.99
2022-10-08T02:43:22.141Z,11.97
2022-10-08T02:45:59.797Z,11.99
2022-10-08T02:48:32.652Z,12.00
2022-10-08T02:51:07.057Z,12.00
2022-10-08T02:53:40.171Z,12.01
2022-10-08T02:56:15.519Z,12.04
2022-10-08T02:58:46.213Z,12.05
2022-10-08T03:01:26.896Z,12.05
2022-10-08T03:04:01.974Z,12.07
2022-10-08T03:06:33.518Z,12.10
2022-10-08T03:09:03.450Z,12.09
2022-10-08T03:11:32.321Z,12.09
2022-10-08T03:14:05.057Z,12.02
2022-10-08T03:16:40.800Z,12.00
2022-10-08T03:19:11.760Z,12.00
2022-10-08T03:21:42.630Z,12.04
2022-10-08T03:24:13.918Z,12.07
2022-10-08T03:26:43.251Z,12.05
2022-10-08T03:29:12.714Z,12.06
2022-10-08T03:31:42.851Z,12.09
2022-10-08T03:34:11.607Z,12.15
2022-10-08T03:36:40.090Z,12.19
2022-10-08T03:39:09.082Z,12.19
2022-10-08T03:41:37.549Z,12.24
2022-10-08T03:44:08.991Z,12.25
2022-10-08T03:46:37.847Z,12.32
2022-10-08T03:49:07.961Z,12.35
2022-10-08T03:51:36.669Z,12.42
2022-10-08T03:54:05.502Z,12.24
2022-10-08T03:56:35.092Z,12.50
2022-10-08T03:59:03.987Z,12.54
2022-10-08T04:01:32.636Z,12.56
2022-10-08T04:04:01.247Z,12.55
2022-10-08T04:06:31.409Z,12.56
2022-10-08T04:09:01.462Z,12.56
2022-10-08T04:11:30.912Z,12.55
2022-10-08T04:13:59.556Z,12.58
2022-10-08T04:16:28.207Z,12.57
2022-10-08T04:18:56.976Z,12.57
2022-10-08T04:21:25.678Z,12.57
2022-10-08T04:23:57.149Z,12.57
2022-10-08T04:26:25.820Z,12.56
2022-10-08T04:28:54.805Z,12.55
2022-10-08T04:31:24.708Z,12.57
2022-10-08T04:33:54.278Z,12.59
2022-10-08T04:36:25.531Z,12.63
2022-10-08T04:38:55.605Z,12.65
2022-10-08T04:41:26.081Z,12.65
2022-10-08T04:43:55.992Z,12.67
2022-10-08T04:46:24.628Z,12.69
2022-10-08T04:48:55.023Z,12.72
2022-10-08T04:51:25.099Z,12.76
2022-10-08T04:53:58.137Z,12.78
2022-10-08T04:56:28.712Z,12.82
2022-10-08T04:58:58.890Z,12.84
2022-10-08T05:01:29.671Z,12.87
2022-10-08T05:04:00.316Z,12.92
2022-10-08T05:06:31.684Z,12.95
2022-10-08T05:09:04.353Z,12.97
2022-10-08T05:11:34.812Z,13.00
2022-10-08T05:14:03.590Z,12.98
2022-10-08T05:16:32.475Z,13.03
2022-10-08T05:19:01.510Z,13.04
2022-10-08T05:21:31.902Z,13.07
2022-10-08T05:24:04.670Z,13.09
2022-10-08T05:29:25.707Z,13.12
2022-10-08T05:31:54.270Z,13.13
2022-10-08T05:34:23.022Z,13.17
2022-10-08T05:36:51.551Z,13.21
2022-10-08T05:39:21.601Z,13.28
2022-10-08T05:41:50.281Z,13.32
2022-10-08T05:44:18.749Z,13.35
2022-10-08T05:46:47.387Z,13.40
2022-10-08T05:49:21.110Z,13.42
2022-10-08T05:51:51.263Z,13.46
2022-10-08T05:54:22.130Z,13.47
2022-10-08T05:56:50.770Z,13.55
2022-10-08T05:59:21.249Z,13.56
2022-10-08T06:01:49.772Z,13.60
2022-10-08T06:04:18.722Z,13.58
2022-10-08T06:06:47.557Z,13.66
2022-10-08T06:09:18.710Z,13.68
2022-10-08T06:11:49.760Z,13.73
2022-10-08T06:14:20.592Z,13.77
2022-10-08T06:16:49.409Z,13.79
2022-10-08T06:19:18.467Z,13.82
2022-10-08T06:21:47.041Z,13.87
2022-10-08T06:24:15.631Z,13.88
2022-10-08T06:26:45.302Z,13.90
2022-10-08T06:29:17.834Z,13.93
2022-10-08T06:31:46.796Z,13.95
2022-10-08T06:34:15.634Z,14.03
2022-10-08T06:36:44.223Z,14.07
2022-10-08T06:39:14.352Z,14.13
2022-10-08T06:41:43.796Z,14.17
2022-10-08T06:44:14.029Z,14.25
2022-10-08T06:46:44.405Z,14.29
2022-10-08T06:49:13.508Z,14.35
2022-10-08T06:51:42.109Z,14.39
2022-10-08T06:54:10.925Z,14.45
2022-10-08T06:56:40.047Z,14.52
2022-10-08T06:59:09.239Z,14.54
2022-10-08T07:01:38.487Z,14.64
2022-10-08T07:04:08.653Z,14.73
2022-10-08T07:06:37.341Z,14.81
2022-10-08T07:09:07.430Z,14.86
2022-10-08T07:11:36.100Z,14.91
2022-10-08T07:14:05.089Z,14.96
2022-10-08T07:16:33.952Z,15.03
2022-10-08T07:19:02.619Z,15.06
2022-10-08T07:21:32.653Z,15.13
2022-10-08T07:24:02.223Z,15.23
2022-10-08T07:26:32.580Z,15.28
2022-10-08T07:29:03.422Z,15.34
2022-10-08T07:31:34.271Z,15.39
2022-10-08T07:34:05.954Z,15.51
2022-10-08T07:36:36.563Z,15.64
2022-10-08T07:39:08.352Z,15.77
2022-10-08T07:41:37.301Z,15.92
2022-10-08T07:44:06.901Z,16.05
2022-10-08T07:46:36.368Z,16.14
2022-10-08T07:49:05.778Z,16.22
2022-10-08T07:51:36.742Z,16.31
2022-10-08T07:54:07.825Z,16.34
2022-10-08T07:56:37.833Z,16.31
2022-10-08T07:59:07.382Z,16.39
2022-10-08T08:01:35.864Z,16.48
2022-10-08T08:04:06.981Z,16.62
2022-10-08T08:06:42.625Z,16.74
2022-10-08T08:09:12.341Z,16.84
2022-10-08T08:11:41.286Z,16.92
2022-10-08T08:14:09.973Z,16.90
2022-10-08T08:16:39.201Z,16.77
2022-10-08T08:19:08.381Z,16.89
2022-10-08T08:21:39.606Z,16.88
2022-10-08T08:24:11.131Z,16.93
2022-10-08T08:26:42.482Z,16.99
2022-10-08T08:29:14.222Z,17.08
2022-10-08T08:31:44.899Z,17.24
2022-10-08T08:34:16.103Z,17.35
2022-10-08T08:36:48.974Z,17.54
2022-10-08T08:39:19.821Z,17.72
2022-10-08T08:42:03.102Z,17.78
2022-10-08T08:44:35.503Z,17.97
2022-10-08T08:47:12.164Z,18.14
2022-10-08T08:49:44.342Z,18.29
2022-10-08T08:52:18.075Z,18.42
2022-10-08T08:54:49.757Z,18.64
2022-10-08T08:57:38.457Z,18.87
2022-10-08T09:00:15.507Z,18.93
2022-10-08T09:02:53.634Z,19.03
2022-10-08T09:05:25.382Z,18.89
2022-10-08T09:08:02.236Z,18.92
2022-10-08T09:10:38.065Z,18.91
2022-10-08T09:13:16.733Z,18.88
2022-10-08T09:15:47.147Z,18.86
2022-10-08T09:18:17.546Z,18.86
2022-10-08T09:20:46.584Z,18.83
2022-10-08T09:23:19.326Z,18.81
2022-10-08T09:25:54.737Z,18.83
2022-10-08T09:28:41.669Z,19.01
2022-10-08T09:31:24.544Z,19.34
2022-10-08T09:33:59.468Z,19.67
2022-10-08T09:36:34.541Z,19.86
2022-10-08T09:39:07.690Z,19.77
2022-10-08T09:41:36.426Z,19.70
2022-10-08T09:44:18.052Z,19.93
2022-10-08T09:46:47.717Z,20.00
2022-10-08T09:49:28.955Z,20.19
2022-10-08T09:52:01.277Z,20.18
2022-10-08T09:54:36.582Z,20.21
2022-10-08T09:57:07.747Z,20.27
2022-10-08T09:59:42.407Z,20.29
2022-10-08T10:02:29.318Z,20.20
2022-10-08T10:04:59.845Z,20.15
2022-10-08T10:07:40.094Z,20.28
2022-10-08T10:10:20.337Z,20.47
2022-10-08T10:12:54.430Z,20.63
2022-10-08T10:15:29.845Z,20.81
2022-10-08T10:18:02.647Z,20.77
2022-10-08T10:20:37.419Z,20.76
2022-10-08T10:23:13.559Z,20.72
2022-10-08T10:25:49.383Z,20.75
2022-10-08T10:28:25.008Z,20.76
2022-10-08T10:31:02.854Z,20.77
2022-10-08T10:33:35.317Z,20.84
2022-10-08T10:36:10.938Z,20.95
2022-10-08T10:38:48.066Z,21.03
2022-10-08T10:41:28.773Z,21.08
2022-10-08T10:44:01.174Z,21.10
2022-10-08T10:46:35.720Z,21.13
2022-10-08T10:49:10.677Z,21.17
2022-10-08T10:51:52.331Z,21.20
2022-10-08T10:54:42.976Z,21.18
2022-10-08T10:57:22.348Z,21.30
2022-10-08T11:00:04.289Z,21.30
2022-10-08T11:02:41.408Z,21.28
2022-10-08T11:05:16.849Z,21.03
2022-10-08T11:08:01.710Z,21.17
2022-10-08T11:10:42.339Z,21.36
2022-10-08T11:13:26.918Z,21.57
2022-10-08T11:16:07.687Z,21.53
2022-10-08T11:18:48.516Z,21.49
2022-10-08T11:21:33.639Z,21.57
2022-10-08T11:24:25.581Z,21.58
2022-10-08T11:27:01.761Z,21.61
2022-10-08T11:29:38.881Z,21.81
2022-10-08T11:32:13.962Z,21.80
2022-10-08T11:34:50.659Z,21.77
2022-10-08T11:37:25.477Z,21.59
2022-10-08T11:40:04.797Z,21.64
2022-10-08T11:42:44.993Z,21.64
2022-10-08T11:45:32.801Z,21.70
2022-10-08T11:48:05.393Z,21.89
2022-10-08T11:50:39.019Z,21.86
2022-10-08T11:53:19.189Z,21.74
2022-10-08T11:55:54.091Z,21.66
2022-10-08T11:58:28.582Z,21.57
2022-10-08T12:01:06.398Z,21.52
2022-10-08T12:03:38.493Z,21.60
2022-10-08T12:06:19.998Z,21.67
2022-10-08T12:08:54.359Z,21.50
2022-10-08T12:11:45.097Z,21.30
2022-10-08T12:14:31.072Z,21.09
2022-10-08T12:17:12.704Z,21.22
2022-10-08T12:20:01.341Z,21.40
2022-10-08T12:22:45.638Z,21.24
2022-10-08T12:25:36.627Z,21.09
2022-10-08T12:28:26.322Z,21.22
2022-10-08T12:30:57.759Z,21.18
2022-10-08T12:33:30.258Z,20.96
2022-10-08T12:36:06.099Z,20.79
2022-10-08T12:38:41.828Z,20.67
2022-10-08T12:41:21.165Z,20.64
2022-10-08T12:43:57.734Z,20.76
2022-10-08T12:46:38.327Z,21.10
2022-10-08T12:49:21.054Z,21.22
2022-10-08T12:52:01.034Z,21.31
2022-10-08T12:54:31.712Z,21.32
2022-10-08T12:57:02.024Z,21.31
2022-10-08T12:59:32.910Z,21.32
2022-10-08T13:02:01.568Z,21.28
2022-10-08T13:04:35.026Z,21.25
2022-10-08T13:07:20.429Z,21.11
2022-10-08T13:09:54.841Z,21.02
2022-10-08T13:12:23.452Z,21.02
2022-10-08T13:15:01.553Z,21.05
2022-10-08T13:17:31.853Z,21.07
2022-10-08T13:20:16.631Z,20.91
2022-10-08T13:22:45.332Z,20.80
2022-10-08T13:25:36.941Z,20.76
2022-10-08T13:28:10.946Z,20.77
2022-10-08T13:30:40.108Z,20.73
2022-10-08T13:33:17.091Z,20.56
2022-10-08T13:35:52.965Z,20.41
2022-10-08T13:38:25.834Z,20.38
2022-10-08T13:40:59.067Z,20.38
2022-10-08T13:43:28.101Z,20.34
2022-10-08T13:45:58.108Z,20.32
2022-10-08T13:48:26.944Z,20.20
2022-10-08T13:50:57.746Z,20.14
2022-10-08T13:53:27.922Z,20.08
2022-10-08T13:55:56.685Z,20.06
2022-10-08T13:58:25.258Z,20.08
2022-10-08T14:00:55.060Z,20.10
2022-10-08T14:03:24.097Z,20.10
2022-10-08T14:05:52.710Z,20.08
2022-10-08T14:08:26.950Z,20.06
2022-10-08T14:10:58.444Z,20.08
2022-10-08T14:13:29.653Z,20.12
2022-10-08T14:15:58.387Z,20.15
2022-10-08T14:18:26.983Z,20.19
2022-10-08T14:20:55.762Z,20.13
2022-10-08T14:23:25.779Z,20.25
2022-10-08T14:25:54.865Z,20.31
2022-10-08T14:28:23.685Z,20.30
2022-10-08T14:30:52.346Z,20.32
2022-10-08T14:33:20.802Z,20.32
2022-10-08T14:35:53.851Z,20.32
2022-10-08T14:38:22.541Z,20.26
2022-10-08T14:40:52.591Z,20.22
2022-10-08T14:43:22.056Z,20.18
2022-10-08T14:45:50.941Z,20.15
2022-10-08T14:48:19.673Z,20.06
2022-10-08T14:50:48.168Z,20.08
2022-10-08T14:53:16.845Z,20.05
2022-10-08T14:56:10.483Z,20.02
2022-10-08T14:58:36.901Z,19.96
2022-10-08T15:01:05.610Z,19.92
2022-10-08T15:03:34.447Z,19.85
2022-10-08T15:06:03.429Z,19.81
2022-10-08T15:08:32.003Z,19.74
2022-10-08T15:11:03.495Z,19.71
2022-10-08T15:13:32.143Z,19.64
2022-10-08T15:16:02.283Z,19.56
2022-10-08T15:18:32.063Z,19.48
2022-10-08T15:21:01.786Z,19.40
2022-10-08T15:23:31.263Z,19.30
2022-10-08T15:26:00.416Z,19.17
2022-10-08T15:28:30.602Z,19.06
2022-10-08T15:31:06.313Z,18.93
2022-10-08T15:33:39.292Z,18.78
2022-10-08T15:36:18.524Z,18.67
2022-10-08T15:38:48.072Z,18.53
2022-10-08T15:41:17.863Z,18.48
2022-10-08T15:43:46.570Z,18.40
2022-10-08T15:46:20.217Z,18.28
2022-10-08T15:48:54.412Z,18.19
2022-10-08T15:51:24.165Z,18.09
2022-10-08T15:53:52.745Z,18.01
2022-10-08T15:56:21.483Z,17.93
2022-10-08T15:58:51.458Z,17.87
2022-10-08T16:01:23.477Z,17.80
2022-10-08T16:03:53.494Z,17.72
2022-10-08T16:06:24.354Z,17.59
2022-10-08T16:08:52.877Z,17.49
2022-10-08T16:11:23.186Z,17.36
2022-10-08T16:13:55.835Z,17.27
2022-10-08T16:16:26.084Z,17.21
2022-10-08T16:18:58.255Z,17.18
2022-10-08T16:21:28.612Z,17.09
2022-10-08T16:23:58.602Z,17.00
2022-10-08T16:26:32.284Z,16.88
2022-10-08T16:29:03.235Z,16.81
2022-10-08T16:31:35.117Z,16.78
2022-10-08T16:34:06.114Z,16.70
2022-10-08T16:36:37.505Z,16.60
2022-10-08T16:39:07.692Z,16.52
2022-10-08T16:41:38.374Z,16.48
2022-10-08T16:44:12.579Z,16.43
2022-10-08T16:46:48.629Z,16.36
2022-10-08T16:49:24.271Z,16.32
2022-10-08T16:51:56.294Z,16.26
2022-10-08T16:54:25.245Z,16.22
2022-10-08T16:56:54.019Z,16.19
2022-10-08T16:59:25.025Z,16.12
2022-10-08T17:01:58.039Z,16.07
2022-10-08T17:04:28.908Z,15.97
2022-10-08T17:06:57.670Z,15.88
2022-10-08T17:09:26.136Z,15.85
2022-10-08T17:11:54.906Z,15.85
2022-10-08T17:14:23.520Z,15.84
2022-10-08T17:16:52.292Z,15.87
2022-10-08T17:19:22.404Z,15.83
2022-10-08T17:21:51.060Z,15.80
2022-10-08T17:24:19.650Z,15.83
2022-10-08T17:26:50.276Z,15.85
2022-10-08T17:29:19.061Z,15.83
2022-10-08T17:31:47.848Z,15.76
2022-10-08T17:34:16.539Z,15.72
2022-10-08T17:36:46.648Z,15.66
2022-10-08T17:39:15.658Z,15.61
2022-10-08T17:41:44.984Z,15.59
2022-10-08T17:44:13.918Z,15.57
2022-10-08T17:46:46.095Z,15.49
2022-10-08T17:49:15.647Z,15.52
2022-10-08T17:51:44.859Z,15.49
2022-10-08T17:54:17.029Z,15.39
2022-10-08T17:56:45.758Z,15.29
2022-10-08T17:59:15.805Z,15.21
2022-10-08T18:01:45.516Z,15.15
2022-10-08T18:04:16.915Z,15.11
2022-10-08T18:06:47.339Z,15.03
2022-10-08T18:09:19.650Z,14.96
2022-10-08T18:11:51.116Z,14.94
2022-10-08T18:14:20.418Z,14.96
2022-10-08T18:16:49.219Z,14.96
2022-10-08T18:19:18.540Z,14.99
2022-10-08T18:21:47.377Z,15.06
2022-10-08T18:24:18.651Z,15.07
2022-10-08T18:26:47.398Z,15.01
2022-10-08T18:29:16.246Z,14.96
2022-10-08T18:31:46.788Z,14.90
2022-10-08T18:34:17.843Z,14.85
2022-10-08T18:36:47.342Z,14.83
2022-10-08T18:39:20.751Z,14.73
2022-10-08T18:41:52.626Z,14.68
2022-10-08T18:44:23.777Z,14.61
2022-10-08T18:46:53.309Z,14.59
2022-10-08T18:49:29.303Z,14.53
2022-10-08T18:51:58.824Z,14.47
2022-10-08T18:54:28.910Z,14.43
2022-10-08T18:57:00.636Z,14.39
2022-10-08T18:59:30.981Z,14.34
2022-10-08T19:02:01.102Z,14.26
2022-10-08T19:04:29.802Z,14.16
2022-10-08T19:06:58.382Z,14.13
2022-10-08T19:09:28.742Z,14.08
2022-10-08T19:11:58.052Z,13.97
2022-10-08T19:14:26.661Z,13.91
2022-10-08T19:16:55.370Z,13.91
2022-10-08T19:19:27.670Z,13.98
2022-10-08T19:21:56.750Z,13.98
2022-10-08T19:24:26.889Z,13.92
2022-10-08T19:26:58.472Z,13.89
2022-10-08T19:29:29.638Z,13.86
2022-10-08T19:31:59.251Z,13.84
2022-10-08T19:34:28.480Z,13.78
2022-10-08T19:36:57.747Z,13.76
2022-10-08T19:39:28.591Z,13.81
2022-10-08T19:41:59.014Z,13.83
2022-10-08T19:44:27.630Z,13.81
2022-10-08T19:46:56.333Z,13.81
2022-10-08T19:49:24.984Z,13.88
2022-10-08T19:51:54.477Z,13.93
2022-10-08T19:54:23.562Z,13.96
2022-10-08T19:56:52.210Z,13.95
2022-10-08T19:59:22.425Z,13.92
2022-10-08T20:01:51.228Z,13.95
2022-10-08T20:04:22.010Z,13.91
2022-10-08T20:06:51.160Z,13.84
2022-10-08T20:09:19.779Z,13.85
2022-10-08T20:11:48.401Z,13.78
2022-10-08T20:14:18.382Z,13.68
2022-10-08T20:16:48.511Z,13.61
2022-10-08T20:19:20.218Z,13.61
2022-10-08T20:21:50.801Z,13.61
2022-10-08T20:24:19.991Z,13.64
2022-10-08T20:26:49.273Z,13.64
2022-10-08T20:29:20.181Z,13.61
2022-10-08T20:31:54.933Z,13.59
2022-10-08T20:34:29.005Z,13.55
2022-10-08T20:36:58.158Z,13.38
2022-10-08T20:39:26.743Z,13.23
2022-10-08T20:41:55.461Z,13.19
2022-10-08T20:44:24.246Z,13.18
2022-10-08T20:46:54.640Z,13.18
2022-10-08T20:49:23.742Z,13.21
2022-10-08T20:51:52.318Z,13.14
2022-10-08T20:54:20.990Z,13.13
2022-10-08T20:56:49.550Z,13.16
2022-10-08T20:59:20.212Z,13.21
2022-10-08T21:01:51.285Z,13.22
2022-10-08T21:04:22.373Z,13.26
2022-10-08T21:06:52.582Z,13.23
2022-10-08T21:09:22.962Z,13.22
2022-10-08T21:11:54.022Z,13.19
2022-10-08T21:14:23.882Z,13.23
2022-10-08T21:16:53.771Z,13.29
2022-10-08T21:19:23.865Z,13.36
2022-10-08T21:21:52.828Z,13.40
2022-10-08T21:24:21.689Z,13.42
2022-10-08T21:26:50.331Z,13.46
2022-10-08T21:29:19.081Z,13.53
2022-10-08T21:31:47.812Z,13.61
2022-10-08T21:34:16.684Z,13.61
2022-10-08T21:36:46.700Z,13.61
2022-10-08T21:39:17.858Z,13.60
2022-10-08T21:41:47.232Z,13.61
2022-10-08T21:44:16.152Z,13.64
2022-10-08T21:46:45.613Z,13.66
2022-10-08T21:49:16.643Z,13.66
2022-10-08T21:51:47.216Z,13.66
2022-10-08T21:54:17.739Z,13.69
2022-10-08T21:56:46.747Z,13.73
2022-10-08T21:59:16.832Z,13.75
2022-10-08T22:01:47.323Z,13.77
2022-10-08T22:04:18.590Z,13.79
2022-10-08T22:06:51.261Z,13.78
2022-10-08T22:09:22.772Z,13.82
2022-10-08T22:11:52.831Z,13.85
2022-10-08T22:14:21.628Z,13.80
2022-10-08T22:16:50.551Z,13.76
2022-10-08T22:19:19.446Z,13.76
2022-10-08T22:21:49.602Z,13.79
2022-10-08T22:24:18.260Z,13.86
2022-10-08T22:26:48.555Z,13.87
2022-10-08T22:29:17.841Z,13.88
2022-10-08T22:31:46.709Z,13.85
2022-10-08T22:34:16.023Z,13.82
2022-10-08T22:36:46.252Z,13.81
2022-10-08T22:39:16.354Z,13.75
2022-10-08T22:41:45.051Z,13.75
2022-10-08T22:44:13.689Z,13.76
2022-10-08T22:46:42.353Z,13.72
2022-10-08T22:49:13.095Z,13.76
2022-10-08T22:51:44.028Z,13.78
2022-10-08T22:54:12.702Z,13.83
2022-10-08T22:56:42.689Z,13.86
2022-10-08T22:59:11.545Z,13.88
2022-10-08T23:01:40.114Z,13.91
2022-10-08T23:04:09.245Z,13.89
2022-10-08T23:06:38.216Z,13.86
2022-10-08T23:09:08.481Z,13.87
2022-10-08T23:11:37.270Z,13.87
2022-10-08T23:14:07.876Z,13.87
2022-10-08T23:16:36.989Z,13.87
2022-10-08T23:19:07.352Z,13.90
2022-10-08T23:21:36.562Z,13.88
2022-10-08T23:24:05.552Z,13.85
2022-10-08T23:26:34.686Z,13.81
2022-10-08T23:29:04.237Z,13.80
2022-10-08T23:31:36.724Z,13.83
2022-10-08T23:34:07.096Z,13.84
2022-10-08T23:36:38.202Z,13.85
2022-10-08T23:39:07.835Z,13.78
2022-10-08T23:41:38.194Z,13.85
2022-10-08T23:44:07.176Z,13.84
2022-10-08T23:46:37.273Z,13.78
2022-10-08T23:49:06.036Z,13.81
2022-10-08T23:51:34.827Z,13.81
2022-10-08T23:54:03.691Z,13.83
2022-10-08T23:56:32.511Z,13.84
2022-10-08T23:59:01.182Z,13.85
